sensor_id;sensor_type;location;lat;lon;timestamp;pressure;altitude;pressure_sealevel;temperature;humidity
47240;BME280;32978;53.586;10.052;2023-02-21T00:04:35;101295.38;;;7.56;100.00
47240;BME280;32978;53.586;10.052;2023-02-21T00:09:50;101306.25;;;7.56;100.00
47240;BME280;32978;53.586;10.052;2023-02-21T00:15:05;101304.66;;;7.55;100.00
47240;BME280;32978;53.586;10.052;2023-02-21T00:20:21;101310.09;;;7.55;100.00
47240;BME280;32978;53.586;10.052;2023-02-21T00:25:36;101310.09;;;7.55;100.00
47240;BME280;32978;53.586;10.052;2023-02-21T00:30:51;101326.97;;;7.52;100.00
47240;BME280;32978;53.586;10.052;2023-02-21T00:36:06;101319.91;;;7.51;100.00
47240;BME280;32978;53.586;10.052;2023-02-21T00:41:21;101326.97;;;7.52;100.00
47240;BME280;32978;53.586;10.052;2023-02-21T00:46:37;101317.47;;;7.49;100.00
47240;BME280;32978;53.586;10.052;2023-02-21T00:51:52;101331.38;;;7.48;100.00
47240;BME280;32978;53.586;10.052;2023-02-21T00:57:07;101329.72;;;7.47;100.00
47240;BME280;32978;53.586;10.052;2023-02-21T01:02:22;101331.09;;;7.44;100.00
47240;BME280;32978;53.586;10.052;2023-02-21T01:07:37;101328.69;;;7.43;100.00
47240;BME280;32978;53.586;10.052;2023-02-21T01:12:53;101329.22;;;7.40;100.00
47240;BME280;32978;53.586;10.052;2023-02-21T01:18:09;101341.22;;;7.38;100.00
47240;BME280;32978;53.586;10.052;2023-02-21T01:23:24;101338.50;;;7.38;100.00
47240;BME280;32978;53.586;10.052;2023-02-21T01:28:39;101348.31;;;7.34;100.00
47240;BME280;32978;53.586;10.052;2023-02-21T01:33:54;101327.34;;;7.35;100.00
47240;BME280;32978;53.586;10.052;2023-02-21T01:39:10;101324.94;;;7.33;100.00
47240;BME280;32978;53.586;10.052;2023-02-21T01:49:47;101331.72;;;7.31;100.00
47240;BME280;32978;53.586;10.052;2023-02-21T01:55:03;101341.78;;;7.30;100.00
47240;BME280;32978;53.586;10.052;2023-02-21T02:00:18;101335.53;;;7.30;100.00
47240;BME280;32978;53.586;10.052;2023-02-21T02:05:34;101341.25;;;7.28;100.00
47240;BME280;32978;53.586;10.052;2023-02-21T02:11:13;101337.16;;;7.31;100.00
47240;BME280;32978;53.586;10.052;2023-02-21T02:16:48;101335.81;;;7.28;100.00
47240;BME280;32978;53.586;10.052;2023-02-21T02:38:24;101343.97;;;7.28;100.00
47240;BME280;32978;53.586;10.052;2023-02-21T02:43:31;101345.63;;;7.29;100.00
47240;BME280;32978;53.586;10.052;2023-02-21T02:49:02;101349.41;;;7.28;100.00
47240;BME280;32978;53.586;10.052;2023-02-21T02:54:01;101353.78;;;7.29;100.00
47240;BME280;32978;53.586;10.052;2023-02-21T02:59:15;101349.94;;;7.30;100.00
47240;BME280;32978;53.586;10.052;2023-02-21T03:14:56;101349.97;;;7.25;100.00
47240;BME280;32978;53.586;10.052;2023-02-21T03:19:56;101341.28;;;7.23;100.00
47240;BME280;32978;53.586;10.052;2023-02-21T03:24:54;101352.72;;;7.20;100.00
47240;BME280;32978;53.586;10.052;2023-02-21T03:29:53;101349.72;;;7.22;100.00
47240;BME280;32978;53.586;10.052;2023-02-21T03:34:51;101347.28;;;7.20;100.00
47240;BME280;32978;53.586;10.052;2023-02-21T03:39:48;101352.22;;;7.13;100.00
47240;BME280;32978;53.586;10.052;2023-02-21T03:44:44;101348.66;;;7.12;100.00
47240;BME280;32978;53.586;10.052;2023-02-21T03:49:40;101358.75;;;7.07;100.00
47240;BME280;32978;53.586;10.052;2023-02-21T03:54:40;101378.38;;;7.04;100.00
47240;BME280;32978;53.586;10.052;2023-02-21T03:59:37;101363.13;;;7.03;100.00
47240;BME280;32978;53.586;10.052;2023-02-21T04:04:33;101365.84;;;7.03;100.00
47240;BME280;32978;53.586;10.052;2023-02-21T04:09:30;101363.69;;;7.00;100.00
47240;BME280;32978;53.586;10.052;2023-02-21T04:14:26;101364.78;;;7.04;100.00
47240;BME280;32978;53.586;10.052;2023-02-21T04:19:23;101380.56;;;6.97;100.00
47240;BME280;32978;53.586;10.052;2023-02-21T04:24:19;101375.38;;;7.00;100.00
47240;BME280;32978;53.586;10.052;2023-02-21T04:29:16;101381.63;;;7.01;100.00
47240;BME280;32978;53.586;10.052;2023-02-21T04:34:12;101373.47;;;6.95;100.00
47240;BME280;32978;53.586;10.052;2023-02-21T04:39:09;101367.81;;;6.87;100.00
47240;BME280;32978;53.586;10.052;2023-02-21T04:44:06;101366.75;;;6.72;100.00
47240;BME280;32978;53.586;10.052;2023-02-21T04:49:03;101357.84;;;6.62;100.00
47240;BME280;32978;53.586;10.052;2023-02-21T04:53:59;101352.97;;;6.48;100.00
47240;BME280;32978;53.586;10.052;2023-02-21T04:58:56;101358.69;;;6.42;100.00
47240;BME280;32978;53.586;10.052;2023-02-21T05:03:52;101356.78;;;6.37;100.00
47240;BME280;32978;53.586;10.052;2023-02-21T05:08:49;101348.38;;;6.28;100.00
47240;BME280;32978;53.586;10.052;2023-02-21T05:13:47;101350.53;;;6.26;100.00
47240;BME280;32978;53.586;10.052;2023-02-21T05:18:45;101354.34;;;6.25;100.00
47240;BME280;32978;53.586;10.052;2023-02-21T05:23:42;101375.28;;;6.25;100.00
47240;BME280;32978;53.586;10.052;2023-02-21T05:28:51;101376.63;;;6.22;100.00
47240;BME280;32978;53.586;10.052;2023-02-21T05:33:48;101378.00;;;6.25;100.00
47240;BME280;32978;53.586;10.052;2023-02-21T05:38:49;101373.09;;;6.27;100.00
47240;BME280;32978;53.586;10.052;2023-02-21T05:43:48;101377.44;;;6.23;100.00
47240;BME280;32978;53.586;10.052;2023-02-21T05:48:45;101384.22;;;6.25;100.00
47240;BME280;32978;53.586;10.052;2023-02-21T05:53:42;101397.81;;;6.25;100.00
47240;BME280;32978;53.586;10.052;2023-02-21T05:58:38;101401.88;;;6.28;100.00
47240;BME280;32978;53.586;10.052;2023-02-21T06:03:35;101398.91;;;6.29;100.00
47240;BME280;32978;53.586;10.052;2023-02-21T06:08:31;101411.13;;;6.27;100.00
47240;BME280;32978;53.586;10.052;2023-02-21T06:13:28;101406.50;;;6.27;100.00
47240;BME280;32978;53.586;10.052;2023-02-21T06:18:26;101413.28;;;6.25;100.00
47240;BME280;32978;53.586;10.052;2023-02-21T06:23:23;101418.19;;;6.23;100.00
47240;BME280;32978;53.586;10.052;2023-02-21T06:28:19;101424.69;;;6.22;100.00
47240;BME280;32978;53.586;10.052;2023-02-21T06:33:16;101428.50;;;6.21;100.00
47240;BME280;32978;53.586;10.052;2023-02-21T06:38:12;101426.88;;;6.20;100.00
47240;BME280;32978;53.586;10.052;2023-02-21T06:43:09;101426.88;;;6.20;100.00
47240;BME280;32978;53.586;10.052;2023-02-21T06:48:05;101432.31;;;6.20;100.00
47240;BME280;32978;53.586;10.052;2023-02-21T06:53:03;101438.53;;;6.20;100.00
47240;BME280;32978;53.586;10.052;2023-02-21T06:58:00;101433.38;;;6.24;100.00
47240;BME280;32978;53.586;10.052;2023-02-21T07:02:56;101426.88;;;6.25;100.00
47240;BME280;32978;53.586;10.052;2023-02-21T07:07:53;101434.47;;;6.28;100.00
47240;BME280;32978;53.586;10.052;2023-02-21T07:12:49;101433.91;;;6.31;100.00
47240;BME280;32978;53.586;10.052;2023-02-21T07:17:46;101441.25;;;6.36;100.00
47240;BME280;32978;53.586;10.052;2023-02-21T07:22:42;101452.94;;;6.41;100.00
47240;BME280;32978;53.586;10.052;2023-02-21T07:27:38;101459.72;;;6.44;100.00
47240;BME280;32978;53.586;10.052;2023-02-21T07:32:35;101462.19;;;6.45;100.00
47240;BME280;32978;53.586;10.052;2023-02-21T07:37:31;101464.91;;;6.50;100.00
47240;BME280;32978;53.586;10.052;2023-02-21T07:42:28;101466.00;;;6.55;100.00
47240;BME280;32978;53.586;10.052;2023-02-21T07:47:26;101457.84;;;6.60;100.00
47240;BME280;32978;53.586;10.052;2023-02-21T07:52:22;101471.97;;;6.62;100.00
47240;BME280;32978;53.586;10.052;2023-02-21T07:57:19;101489.34;;;6.61;100.00
47240;BME280;32978;53.586;10.052;2023-02-21T08:02:15;101499.13;;;6.62;100.00
47240;BME280;32978;53.586;10.052;2023-02-21T08:07:12;101498.88;;;6.68;100.00
47240;BME280;32978;53.586;10.052;2023-02-21T08:12:08;101502.94;;;6.71;100.00
47240;BME280;32978;53.586;10.052;2023-02-21T08:17:05;101512.69;;;6.77;100.00
47240;BME280;32978;53.586;10.052;2023-02-21T08:22:01;101516.50;;;6.86;100.00
47240;BME280;32978;53.586;10.052;2023-02-21T08:26:57;101510.78;;;6.98;100.00
47240;BME280;32978;53.586;10.052;2023-02-21T08:31:54;101511.91;;;6.92;100.00
47240;BME280;32978;53.586;10.052;2023-02-21T08:36:50;101501.81;;;6.92;100.00
47240;BME280;32978;53.586;10.052;2023-02-21T08:41:47;101507.25;;;6.92;100.00
47240;BME280;32978;53.586;10.052;2023-02-21T08:46:47;101510.53;;;6.94;100.00
47240;BME280;32978;53.586;10.052;2023-02-21T08:51:45;101521.38;;;7.10;100.00
47240;BME280;32978;53.586;10.052;2023-02-21T08:56:42;101512.91;;;7.32;100.00
47240;BME280;32978;53.586;10.052;2023-02-21T09:01:39;101512.31;;;7.45;100.00
47240;BME280;32978;53.586;10.052;2023-02-21T09:06:35;101529.47;;;7.41;100.00
47240;BME280;32978;53.586;10.052;2023-02-21T09:11:32;101533.25;;;7.45;100.00
47240;BME280;32978;53.586;10.052;2023-02-21T09:16:28;101532.72;;;7.37;100.00
47240;BME280;32978;53.586;10.052;2023-02-21T09:21:25;101533.75;;;7.62;100.00
47240;BME280;32978;53.586;10.052;2023-02-21T09:26:21;101536.50;;;7.52;100.00
47240;BME280;32978;53.586;10.052;2023-02-21T09:31:19;101547.94;;;7.59;100.00
47240;BME280;32978;53.586;10.052;2023-02-21T09:36:16;101556.09;;;7.54;100.00
47240;BME280;32978;53.586;10.052;2023-02-21T09:41:18;101543.53;;;7.68;100.00
47240;BME280;32978;53.586;10.052;2023-02-21T09:51:26;101547.28;;;7.83;100.00
47240;BME280;32978;53.586;10.052;2023-02-21T09:56:36;101548.84;;;7.99;100.00
47240;BME280;32978;53.586;10.052;2023-02-21T10:01:49;101551.91;;;7.87;100.00
47240;BME280;32978;53.586;10.052;2023-02-21T10:07:13;101544.72;;;8.07;100.00
47240;BME280;32978;53.586;10.052;2023-02-21T10:12:30;101552.66;;;7.98;100.00
47240;BME280;32978;53.586;10.052;2023-02-21T10:22:51;101547.31;;;8.27;100.00
47240;BME280;32978;53.586;10.052;2023-02-21T10:27:49;101559.06;;;8.22;100.00
47240;BME280;32978;53.586;10.052;2023-02-21T10:32:47;101551.34;;;8.45;100.00
47240;BME280;32978;53.586;10.052;2023-02-21T10:37:52;101557.63;;;8.80;100.00
47240;BME280;32978;53.586;10.052;2023-02-21T10:42:59;101557.13;;;8.73;100.00
47240;BME280;32978;53.586;10.052;2023-02-21T10:48:03;101562.25;;;8.79;100.00
47240;BME280;32978;53.586;10.052;2023-02-21T10:53:00;101565.81;;;8.75;100.00
47240;BME280;32978;53.586;10.052;2023-02-21T10:57:57;101554.19;;;8.98;100.00
47240;BME280;32978;53.586;10.052;2023-02-21T11:02:56;101551.69;;;9.31;100.00
47240;BME280;32978;53.586;10.052;2023-02-21T11:08:04;101553.91;;;9.29;100.00
47240;BME280;32978;53.586;10.052;2023-02-21T11:13:13;101557.56;;;9.14;100.00
47240;BME280;32978;53.586;10.052;2023-02-21T11:18:16;101551.22;;;9.24;100.00
47240;BME280;32978;53.586;10.052;2023-02-21T11:23:47;101551.78;;;9.21;100.00
47240;BME280;32978;53.586;10.052;2023-02-21T11:28:42;101543.50;;;9.31;100.00
47240;BME280;32978;53.586;10.052;2023-02-21T11:34:01;101541.34;;;9.76;100.00
47240;BME280;32978;53.586;10.052;2023-02-21T11:39:23;101533.53;;;9.88;100.00
47240;BME280;32978;53.586;10.052;2023-02-21T11:54:29;101538.69;;;9.71;100.00
47240;BME280;32978;53.586;10.052;2023-02-21T11:59:54;101537.41;;;9.63;100.00
47240;BME280;32978;53.586;10.052;2023-02-21T12:10:42;101539.59;;;9.37;100.00
47240;BME280;32978;53.586;10.052;2023-02-21T12:16:02;101555.41;;;9.40;100.00
47240;BME280;32978;53.586;10.052;2023-02-21T12:32:02;101553.84;;;9.05;100.00
47240;BME280;32978;53.586;10.052;2023-02-21T12:37:19;101569.97;;;9.01;100.00
47240;BME280;32978;53.586;10.052;2023-02-21T12:48:00;101559.53;;;9.09;100.00
47240;BME280;32978;53.586;10.052;2023-02-21T12:53:24;101556.22;;;9.17;100.00
47240;BME280;32978;53.586;10.052;2023-02-21T12:58:29;101557.81;;;9.18;100.00
47240;BME280;32978;53.586;10.052;2023-02-21T13:03:42;101558.97;;;9.12;100.00
47240;BME280;32978;53.586;10.052;2023-02-21T13:08:51;101550.88;;;9.01;100.00
47240;BME280;32978;53.586;10.052;2023-02-21T13:13:50;101550.78;;;8.82;100.00
47240;BME280;32978;53.586;10.052;2023-02-21T13:18:55;101567.34;;;8.91;100.00
47240;BME280;32978;53.586;10.052;2023-02-21T13:24:12;101556.56;;;8.76;100.00
47240;BME280;32978;53.586;10.052;2023-02-21T13:29:19;101555.91;;;8.89;100.00
47240;BME280;32978;53.586;10.052;2023-02-21T13:34:18;101560.59;;;9.13;100.00
47240;BME280;32978;53.586;10.052;2023-02-21T13:39:31;101554.78;;;8.90;100.00
47240;BME280;32978;53.586;10.052;2023-02-21T13:44:33;101555.75;;;9.04;100.00
47240;BME280;32978;53.586;10.052;2023-02-21T14:05:27;101535.13;;;8.93;100.00
47240;BME280;32978;53.586;10.052;2023-02-21T14:10:53;101563.94;;;9.04;100.00
47240;BME280;32978;53.586;10.052;2023-02-21T14:16:15;101569.50;;;8.94;100.00
47240;BME280;32978;53.586;10.052;2023-02-21T14:36:58;101562.78;;;8.42;100.00
47240;BME280;32978;53.586;10.052;2023-02-21T14:42:05;101563.63;;;8.42;100.00
47240;BME280;32978;53.586;10.052;2023-02-21T14:47:32;101568.28;;;8.32;100.00
47240;BME280;32978;53.586;10.052;2023-02-21T14:58:25;101570.06;;;8.57;100.00
47240;BME280;32978;53.586;10.052;2023-02-21T15:03:32;101573.47;;;8.28;100.00
47240;BME280;32978;53.586;10.052;2023-02-21T15:08:40;101581.94;;;8.27;100.00
47240;BME280;32978;53.586;10.052;2023-02-21T15:13:37;101580.25;;;8.31;100.00
47240;BME280;32978;53.586;10.052;2023-02-21T15:18:38;101581.97;;;8.21;100.00
47240;BME280;32978;53.586;10.052;2023-02-21T15:23:36;101586.84;;;8.25;100.00
47240;BME280;32978;53.586;10.052;2023-02-21T15:28:33;101582.47;;;8.23;100.00
47240;BME280;32978;53.586;10.052;2023-02-21T15:33:34;101583.03;;;8.20;100.00
47240;BME280;32978;53.586;10.052;2023-02-21T15:43:42;101575.47;;;8.12;100.00
47240;BME280;32978;53.586;10.052;2023-02-21T15:48:41;101581.22;;;8.06;100.00
47240;BME280;32978;53.586;10.052;2023-02-21T15:53:37;101584.81;;;7.91;100.00
47240;BME280;32978;53.586;10.052;2023-02-21T15:58:34;101584.88;;;7.80;100.00
47240;BME280;32978;53.586;10.052;2023-02-21T16:03:40;101591.44;;;7.64;100.00
47240;BME280;32978;53.586;10.052;2023-02-21T16:09:04;101587.59;;;7.75;100.00
47240;BME280;32978;53.586;10.052;2023-02-21T16:14:02;101591.69;;;7.68;100.00
47240;BME280;32978;53.586;10.052;2023-02-21T16:18:59;101595.28;;;7.53;100.00
47240;BME280;32978;53.586;10.052;2023-02-21T16:24:22;101601.81;;;7.57;100.00
47240;BME280;32978;53.586;10.052;2023-02-21T16:29:22;101609.69;;;7.53;100.00
47240;BME280;32978;53.586;10.052;2023-02-21T16:34:18;101614.06;;;7.44;100.00
47240;BME280;32978;53.586;10.052;2023-02-21T16:39:14;101622.53;;;7.43;100.00
47240;BME280;32978;53.586;10.052;2023-02-21T16:44:11;101630.94;;;7.31;100.00
47240;BME280;32978;53.586;10.052;2023-02-21T16:49:08;101624.69;;;7.30;100.00
47240;BME280;32978;53.586;10.052;2023-02-21T16:54:05;101628.00;;;7.22;100.00
47240;BME280;32978;53.586;10.052;2023-02-21T16:59:13;101628.53;;;7.29;100.00
47240;BME280;32978;53.586;10.052;2023-02-21T17:04:19;101637.78;;;7.33;100.00
47240;BME280;32978;53.586;10.052;2023-02-21T17:09:21;101637.22;;;7.26;100.00
47240;BME280;32978;53.586;10.052;2023-02-21T17:14:19;101648.66;;;7.33;100.00
47240;BME280;32978;53.586;10.052;2023-02-21T17:19:17;101653.28;;;7.28;100.00
47240;BME280;32978;53.586;10.052;2023-02-21T17:24:15;101653.00;;;7.24;100.00
47240;BME280;32978;53.586;10.052;2023-02-21T17:29:12;101660.09;;;7.15;100.00
47240;BME280;32978;53.586;10.052;2023-02-21T17:34:11;101657.34;;;7.25;100.00
47240;BME280;32978;53.586;10.052;2023-02-21T17:39:08;101662.78;;;7.30;100.00
47240;BME280;32978;53.586;10.052;2023-02-21T17:44:05;101669.31;;;7.34;100.00
47240;BME280;32978;53.586;10.052;2023-02-21T17:49:02;101663.91;;;7.24;100.00
47240;BME280;32978;53.586;10.052;2023-02-21T17:53:58;101677.50;;;7.24;100.00
47240;BME280;32978;53.586;10.052;2023-02-21T17:58:54;101688.91;;;7.26;100.00
47240;BME280;32978;53.586;10.052;2023-02-21T18:03:52;101691.09;;;7.24;100.00
47240;BME280;32978;53.586;10.052;2023-02-21T18:08:49;101696.53;;;7.24;100.00
47240;BME280;32978;53.586;10.052;2023-02-21T18:13:45;101703.59;;;7.30;100.00
47240;BME280;32978;53.586;10.052;2023-02-21T18:18:42;101711.75;;;7.30;100.00
47240;BME280;32978;53.586;10.052;2023-02-21T18:23:42;101706.31;;;7.15;100.00
47240;BME280;32978;53.586;10.052;2023-02-21T18:28:39;101702.50;;;7.16;100.00
47240;BME280;32978;53.586;10.052;2023-02-21T18:33:36;101716.09;;;7.16;100.00
47240;BME280;32978;53.586;10.052;2023-02-21T18:38:32;101712.81;;;7.19;100.00
47240;BME280;32978;53.586;10.052;2023-02-21T18:43:29;101715.03;;;7.22;100.00
47240;BME280;32978;53.586;10.052;2023-02-21T18:48:26;101726.44;;;7.19;100.00
47240;BME280;32978;53.586;10.052;2023-02-21T18:53:22;101721.53;;;7.26;100.00
47240;BME280;32978;53.586;10.052;2023-02-21T18:58:19;101705.22;;;7.26;100.00
47240;BME280;32978;53.586;10.052;2023-02-21T19:03:15;101719.09;;;7.30;100.00
47240;BME280;32978;53.586;10.052;2023-02-21T19:08:12;101716.66;;;7.23;100.00
47240;BME280;32978;53.586;10.052;2023-02-21T19:13:08;101716.66;;;7.33;100.00
47240;BME280;32978;53.586;10.052;2023-02-21T19:18:05;101712.28;;;7.37;100.00
47240;BME280;32978;53.586;10.052;2023-02-21T19:23:01;101719.66;;;7.32;100.00
47240;BME280;32978;53.586;10.052;2023-02-21T19:27:58;101718.00;;;7.21;100.00
47240;BME280;32978;53.586;10.052;2023-02-21T19:32:58;101725.34;;;7.25;100.00
47240;BME280;32978;53.586;10.052;2023-02-21T19:37:55;101720.75;;;7.36;100.00
47240;BME280;32978;53.586;10.052;2023-02-21T19:42:51;101730.78;;;7.30;100.00
47240;BME280;32978;53.586;10.052;2023-02-21T19:47:48;101729.97;;;7.35;100.00
47240;BME280;32978;53.586;10.052;2023-02-21T19:52:50;101728.34;;;7.44;100.00
47240;BME280;32978;53.586;10.052;2023-02-21T19:57:47;101737.34;;;7.40;100.00
47240;BME280;32978;53.586;10.052;2023-02-21T20:02:44;101734.06;;;7.37;100.00
47240;BME280;32978;53.586;10.052;2023-02-21T20:07:41;101747.41;;;7.39;100.00
47240;BME280;32978;53.586;10.052;2023-02-21T20:12:38;101747.41;;;7.49;100.00
47240;BME280;32978;53.586;10.052;2023-02-21T20:17:35;101736.81;;;7.43;100.00
47240;BME280;32978;53.586;10.052;2023-02-21T20:22:32;101732.44;;;7.36;100.00
47240;BME280;32978;53.586;10.052;2023-02-21T20:27:29;101738.41;;;7.54;100.00
47240;BME280;32978;53.586;10.052;2023-02-21T20:32:25;101749.59;;;7.47;100.00
47240;BME280;32978;53.586;10.052;2023-02-21T20:37:22;101741.16;;;7.49;100.00
47240;BME280;32978;53.586;10.052;2023-02-21T20:42:19;101744.94;;;7.37;100.00
47240;BME280;32978;53.586;10.052;2023-02-21T20:47:18;101740.31;;;7.58;100.00
47240;BME280;32978;53.586;10.052;2023-02-21T20:52:15;101737.91;;;7.57;100.00
47240;BME280;32978;53.586;10.052;2023-02-21T20:57:11;101744.97;;;7.58;100.00
47240;BME280;32978;53.586;10.052;2023-02-21T21:02:09;101747.66;;;7.63;100.00
47240;BME280;32978;53.586;10.052;2023-02-21T21:07:14;101735.19;;;7.57;100.00
47240;BME280;32978;53.586;10.052;2023-02-21T21:12:14;101744.41;;;7.51;100.00
47240;BME280;32978;53.586;10.052;2023-02-21T21:17:15;101743.88;;;7.49;100.00
47240;BME280;32978;53.586;10.052;2023-02-21T21:22:15;101748.78;;;7.36;100.00
47240;BME280;32978;53.586;10.052;2023-02-21T21:27:12;101747.13;;;7.46;100.00
47240;BME280;32978;53.586;10.052;2023-02-21T21:32:12;101743.34;;;7.57;100.00
47240;BME280;32978;53.586;10.052;2023-02-21T21:37:10;101749.59;;;7.57;100.00
47240;BME280;32978;53.586;10.052;2023-02-21T21:42:07;101751.50;;;7.62;100.00
47240;BME280;32978;53.586;10.052;2023-02-21T21:47:06;101742.22;;;7.63;100.00
47240;BME280;32978;53.586;10.052;2023-02-21T21:52:03;101738.44;;;7.64;100.00
47240;BME280;32978;53.586;10.052;2023-02-21T21:57:01;101740.59;;;7.67;100.00
47240;BME280;32978;53.586;10.052;2023-02-21T22:01:59;101740.34;;;7.69;100.00
47240;BME280;32978;53.586;10.052;2023-02-21T22:06:55;101744.13;;;7.68;100.00
47240;BME280;32978;53.586;10.052;2023-02-21T22:11:52;101731.38;;;7.68;100.00
47240;BME280;32978;53.586;10.052;2023-02-21T22:16:50;101733.53;;;7.71;100.00
47240;BME280;32978;53.586;10.052;2023-02-21T22:21:48;101724.25;;;7.72;100.00
47240;BME280;32978;53.586;10.052;2023-02-21T22:26:44;101725.91;;;7.73;100.00
47240;BME280;32978;53.586;10.052;2023-02-21T22:31:42;101729.69;;;7.72;100.00
47240;BME280;32978;53.586;10.052;2023-02-21T22:36:44;101731.88;;;7.70;100.00
47240;BME280;32978;53.586;10.052;2023-02-21T22:41:41;101723.72;;;7.75;100.00
47240;BME280;32978;53.586;10.052;2023-02-21T22:46:40;101721.56;;;7.77;100.00
47240;BME280;32978;53.586;10.052;2023-02-21T22:51:37;101721.53;;;7.67;100.00
47240;BME280;32978;53.586;10.052;2023-02-21T22:56:34;101718.28;;;7.75;100.00
47240;BME280;32978;53.586;10.052;2023-02-21T23:01:34;101721.56;;;7.77;100.00
47240;BME280;32978;53.586;10.052;2023-02-21T23:06:30;101715.56;;;7.75;100.00
47240;BME280;32978;53.586;10.052;2023-02-21T23:11:27;101711.19;;;7.74;100.00
47240;BME280;32978;53.586;10.052;2023-02-21T23:16:26;101704.13;;;7.73;100.00
47240;BME280;32978;53.586;10.052;2023-02-21T23:21:23;101704.94;;;7.74;100.00
47240;BME280;32978;53.586;10.052;2023-02-21T23:26:19;101700.31;;;7.69;100.00
47240;BME280;32978;53.586;10.052;2023-02-21T23:31:16;101697.03;;;7.72;100.00
47240;BME280;32978;53.586;10.052;2023-02-21T23:36:15;101688.88;;;7.67;100.00
47240;BME280;32978;53.586;10.052;2023-02-21T23:41:18;101689.16;;;7.71;100.00
47240;BME280;32978;53.586;10.052;2023-02-21T23:46:18;101697.03;;;7.72;100.00
47240;BME280;32978;53.586;10.052;2023-02-21T23:51:16;101701.94;;;7.75;100.00
47240;BME280;32978;53.586;10.052;2023-02-21T23:56:13;101693.78;;;7.75;100.00
